sensor_id;sensor_type;location;lat;lon;timestamp;temperature;humidity
1800;DHT22;919;48.274;12.292;2024-03-22T00:00:17;5.80;99.90
1800;DHT22;919;48.274;12.292;2024-03-22T00:02:43;5.90;99.90
1800;DHT22;919;48.274;12.292;2024-03-22T00:05:09;5.80;99.90
1800;DHT22;919;48.274;12.292;2024-03-22T00:07:36;5.70;99.90
1800;DHT22;919;48.274;12.292;2024-03-22T00:10:02;5.60;99.90
1800;DHT22;919;48.274;12.292;2024-03-22T00:12:29;5.60;99.90
1800;DHT22;919;48.274;12.292;2024-03-22T00:14:55;5.50;99.90
1800;DHT22;919;48.274;12.292;2024-03-22T00:17:23;5.50;99.90
1800;DHT22;919;48.274;12.292;2024-03-22T00:19:49;5.50;99.90
1800;DHT22;919;48.274;12.292;2024-03-22T00:22:16;5.40;99.90
1800;DHT22;919;48.274;12.292;2024-03-22T00:24:41;5.40;99.90
1800;DHT22;919;48.274;12.292;2024-03-22T00:27:08;5.30;99.90
1800;DHT22;919;48.274;12.292;2024-03-22T00:29:34;5.20;99.90
1800;DHT22;919;48.274;12.292;2024-03-22T00:32:00;5.00;99.90
1800;DHT22;919;48.274;12.292;2024-03-22T00:34:28;4.90;99.90
1800;DHT22;919;48.274;12.292;2024-03-22T00:36:54;4.90;99.90
1800;DHT22;919;48.274;12.292;2024-03-22T00:39:20;4.80;99.90
1800;DHT22;919;48.274;12.292;2024-03-22T00:41:47;4.90;99.90
1800;DHT22;919;48.274;12.292;2024-03-22T00:44:12;4.80;99.90
1800;DHT22;919;48.274;12.292;2024-03-22T00:46:39;4.70;99.90
1800;DHT22;919;48.274;12.292;2024-03-22T00:49:05;4.70;99.90
1800;DHT22;919;48.274;12.292;2024-03-22T00:51:33;4.40;99.90
1800;DHT22;919;48.274;12.292;2024-03-22T00:53:58;4.30;99.90
1800;DHT22;919;48.274;12.292;2024-03-22T00:56:25;4.20;99.90
1800;DHT22;919;48.274;12.292;2024-03-22T00:58:51;4.20;99.90
1800;DHT22;919;48.274;12.292;2024-03-22T01:01:18;4.30;99.90
1800;DHT22;919;48.274;12.292;2024-03-22T01:03:44;4.10;99.90
1800;DHT22;919;48.274;12.292;2024-03-22T01:06:10;4.10;99.90
1800;DHT22;919;48.274;12.292;2024-03-22T01:08:37;4.10;99.90
1800;DHT22;919;48.274;12.292;2024-03-22T01:11:04;4.20;99.90
1800;DHT22;919;48.274;12.292;2024-03-22T01:13:30;4.30;99.90
1800;DHT22;919;48.274;12.292;2024-03-22T01:15:56;4.30;99.90
1800;DHT22;919;48.274;12.292;2024-03-22T01:18:22;4.30;99.90
1800;DHT22;919;48.274;12.292;2024-03-22T01:20:49;4.40;99.90
1800;DHT22;919;48.274;12.292;2024-03-22T01:23:14;4.40;99.90
1800;DHT22;919;48.274;12.292;2024-03-22T01:25:42;4.40;99.90
1800;DHT22;919;48.274;12.292;2024-03-22T01:28:10;4.50;99.90
1800;DHT22;919;48.274;12.292;2024-03-22T01:30:37;4.50;99.90
1800;DHT22;919;48.274;12.292;2024-03-22T01:33:03;4.50;99.90
1800;DHT22;919;48.274;12.292;2024-03-22T01:35:29;4.50;99.90
1800;DHT22;919;48.274;12.292;2024-03-22T01:37:55;4.40;99.90
1800;DHT22;919;48.274;12.292;2024-03-22T01:40:22;4.30;99.90
1800;DHT22;919;48.274;12.292;2024-03-22T01:42:53;4.20;99.90
1800;DHT22;919;48.274;12.292;2024-03-22T01:45:19;4.10;99.90
1800;DHT22;919;48.274;12.292;2024-03-22T01:47:46;4.30;99.90
1800;DHT22;919;48.274;12.292;2024-03-22T01:50:12;4.30;99.90
1800;DHT22;919;48.274;12.292;2024-03-22T01:52:39;4.30;99.90
1800;DHT22;919;48.274;12.292;2024-03-22T01:55:07;4.30;99.90
1800;DHT22;919;48.274;12.292;2024-03-22T01:57:33;4.30;99.90
1800;DHT22;919;48.274;12.292;2024-03-22T02:00:02;4.30;99.90
1800;DHT22;919;48.274;12.292;2024-03-22T02:02:29;4.20;99.90
1800;DHT22;919;48.274;12.292;2024-03-22T02:04:56;4.20;99.90
1800;DHT22;919;48.274;12.292;2024-03-22T02:07:22;4.20;99.90
1800;DHT22;919;48.274;12.292;2024-03-22T02:09:49;4.10;99.90
1800;DHT22;919;48.274;12.292;2024-03-22T02:12:15;4.10;99.90
1800;DHT22;919;48.274;12.292;2024-03-22T02:14:42;4.10;99.90
1800;DHT22;919;48.274;12.292;2024-03-22T02:17:09;4.10;99.90
1800;DHT22;919;48.274;12.292;2024-03-22T02:19:36;3.90;99.90
1800;DHT22;919;48.274;12.292;2024-03-22T02:22:02;4.00;99.90
1800;DHT22;919;48.274;12.292;2024-03-22T02:24:30;3.90;99.90
1800;DHT22;919;48.274;12.292;2024-03-22T02:26:55;3.90;99.90
1800;DHT22;919;48.274;12.292;2024-03-22T02:29:22;3.90;99.90
1800;DHT22;919;48.274;12.292;2024-03-22T02:31:48;3.80;99.90
1800;DHT22;919;48.274;12.292;2024-03-22T02:34:14;3.80;99.90
1800;DHT22;919;48.274;12.292;2024-03-22T02:36:40;3.80;99.90
1800;DHT22;919;48.274;12.292;2024-03-22T02:39:07;3.70;99.90
1800;DHT22;919;48.274;12.292;2024-03-22T02:41:34;3.70;99.90
1800;DHT22;919;48.274;12.292;2024-03-22T02:44:01;3.60;99.90
1800;DHT22;919;48.274;12.292;2024-03-22T02:46:26;3.60;99.90
1800;DHT22;919;48.274;12.292;2024-03-22T02:48:53;3.60;99.90
1800;DHT22;919;48.274;12.292;2024-03-22T02:51:19;3.60;99.90
1800;DHT22;919;48.274;12.292;2024-03-22T02:53:46;3.60;99.90
1800;DHT22;919;48.274;12.292;2024-03-22T02:56:12;3.60;99.90
1800;DHT22;919;48.274;12.292;2024-03-22T02:58:40;3.50;99.90
1800;DHT22;919;48.274;12.292;2024-03-22T03:01:05;3.50;99.90
1800;DHT22;919;48.274;12.292;2024-03-22T03:03:32;3.50;99.90
1800;DHT22;919;48.274;12.292;2024-03-22T03:05:58;3.50;99.90
1800;DHT22;919;48.274;12.292;2024-03-22T03:08:25;3.50;99.90
1800;DHT22;919;48.274;12.292;2024-03-22T03:10:50;3.50;99.90
1800;DHT22;919;48.274;12.292;2024-03-22T03:13:17;3.50;99.90
1800;DHT22;919;48.274;12.292;2024-03-22T03:15:44;3.50;99.90
1800;DHT22;919;48.274;12.292;2024-03-22T03:18:11;3.50;99.90
1800;DHT22;919;48.274;12.292;2024-03-22T03:20:37;3.40;99.90
1800;DHT22;919;48.274;12.292;2024-03-22T03:23:03;3.40;99.90
1800;DHT22;919;48.274;12.292;2024-03-22T03:25:30;3.40;99.90
1800;DHT22;919;48.274;12.292;2024-03-22T03:27:56;3.40;99.90
1800;DHT22;919;48.274;12.292;2024-03-22T03:30:23;3.50;99.90
1800;DHT22;919;48.274;12.292;2024-03-22T03:32:50;3.50;99.90
1800;DHT22;919;48.274;12.292;2024-03-22T03:35:16;3.50;99.90
1800;DHT22;919;48.274;12.292;2024-03-22T03:37:42;3.40;99.90
1800;DHT22;919;48.274;12.292;2024-03-22T03:40:09;3.30;99.90
1800;DHT22;919;48.274;12.292;2024-03-22T03:42:35;3.30;99.90
1800;DHT22;919;48.274;12.292;2024-03-22T03:45:02;3.30;99.90
1800;DHT22;919;48.274;12.292;2024-03-22T03:47:28;3.30;99.90
1800;DHT22;919;48.274;12.292;2024-03-22T03:49:56;3.30;99.90
1800;DHT22;919;48.274;12.292;2024-03-22T03:52:21;3.20;99.90
1800;DHT22;919;48.274;12.292;2024-03-22T03:54:48;3.20;99.90
1800;DHT22;919;48.274;12.292;2024-03-22T03:57:14;3.20;99.90
1800;DHT22;919;48.274;12.292;2024-03-22T03:59:40;3.10;99.90
1800;DHT22;919;48.274;12.292;2024-03-22T04:02:06;3.00;99.90
1800;DHT22;919;48.274;12.292;2024-03-22T04:04:33;3.00;99.90
1800;DHT22;919;48.274;12.292;2024-03-22T04:07:00;3.10;99.90
1800;DHT22;919;48.274;12.292;2024-03-22T04:09:27;3.00;99.90
1800;DHT22;919;48.274;12.292;2024-03-22T04:11:52;3.00;99.90
1800;DHT22;919;48.274;12.292;2024-03-22T04:14:19;2.90;99.90
1800;DHT22;919;48.274;12.292;2024-03-22T04:16:45;3.00;99.90
1800;DHT22;919;48.274;12.292;2024-03-22T04:19:12;2.90;99.90
1800;DHT22;919;48.274;12.292;2024-03-22T04:21:37;2.80;99.90
1800;DHT22;919;48.274;12.292;2024-03-22T04:24:05;2.80;99.90
1800;DHT22;919;48.274;12.292;2024-03-22T04:26:31;2.80;99.90
1800;DHT22;919;48.274;12.292;2024-03-22T04:28:58;2.80;99.90
1800;DHT22;919;48.274;12.292;2024-03-22T04:31:24;2.70;99.90
1800;DHT22;919;48.274;12.292;2024-03-22T04:33:51;2.70;99.90
1800;DHT22;919;48.274;12.292;2024-03-22T04:36:16;2.70;99.90
1800;DHT22;919;48.274;12.292;2024-03-22T04:38:43;2.60;99.90
1800;DHT22;919;48.274;12.292;2024-03-22T04:41:11;2.60;99.90
1800;DHT22;919;48.274;12.292;2024-03-22T04:43:37;2.70;99.90
1800;DHT22;919;48.274;12.292;2024-03-22T04:46:04;2.80;99.90
1800;DHT22;919;48.274;12.292;2024-03-22T04:48:30;2.80;99.90
1800;DHT22;919;48.274;12.292;2024-03-22T04:50:56;2.80;99.90
1800;DHT22;919;48.274;12.292;2024-03-22T04:53:23;2.80;99.90
1800;DHT22;919;48.274;12.292;2024-03-22T04:55:49;2.80;99.90
1800;DHT22;919;48.274;12.292;2024-03-22T04:58:18;2.70;99.90
1800;DHT22;919;48.274;12.292;2024-03-22T05:00:45;2.50;99.90
1800;DHT22;919;48.274;12.292;2024-03-22T05:03:12;2.40;99.90
1800;DHT22;919;48.274;12.292;2024-03-22T05:05:38;2.40;99.90
1800;DHT22;919;48.274;12.292;2024-03-22T05:08:05;2.40;99.90
1800;DHT22;919;48.274;12.292;2024-03-22T05:10:31;2.40;99.90
1800;DHT22;919;48.274;12.292;2024-03-22T05:12:58;2.50;99.90
1800;DHT22;919;48.274;12.292;2024-03-22T05:15:25;2.50;99.90
1800;DHT22;919;48.274;12.292;2024-03-22T05:17:52;2.50;99.90
1800;DHT22;919;48.274;12.292;2024-03-22T05:20:18;2.60;99.90
1800;DHT22;919;48.274;12.292;2024-03-22T05:22:46;2.60;99.90
1800;DHT22;919;48.274;12.292;2024-03-22T05:25:12;2.60;99.90
1800;DHT22;919;48.274;12.292;2024-03-22T05:27:40;2.70;99.90
1800;DHT22;919;48.274;12.292;2024-03-22T05:30:08;2.70;99.90
1800;DHT22;919;48.274;12.292;2024-03-22T05:32:36;2.60;99.90
1800;DHT22;919;48.274;12.292;2024-03-22T05:35:02;2.70;99.90
1800;DHT22;919;48.274;12.292;2024-03-22T05:37:29;2.80;99.90
1800;DHT22;919;48.274;12.292;2024-03-22T05:39:55;2.80;99.90
1800;DHT22;919;48.274;12.292;2024-03-22T05:42:21;2.90;99.90
1800;DHT22;919;48.274;12.292;2024-03-22T05:44:47;3.00;99.90
1800;DHT22;919;48.274;12.292;2024-03-22T05:47:14;3.20;99.90
1800;DHT22;919;48.274;12.292;2024-03-22T05:49:41;3.30;99.90
1800;DHT22;919;48.274;12.292;2024-03-22T05:52:08;3.40;99.90
1800;DHT22;919;48.274;12.292;2024-03-22T05:54:35;3.50;99.90
1800;DHT22;919;48.274;12.292;2024-03-22T05:57:01;3.60;99.90
1800;DHT22;919;48.274;12.292;2024-03-22T05:59:28;3.70;99.90
1800;DHT22;919;48.274;12.292;2024-03-22T06:01:54;3.80;99.90
1800;DHT22;919;48.274;12.292;2024-03-22T06:04:21;3.90;99.90
1800;DHT22;919;48.274;12.292;2024-03-22T06:06:48;4.00;99.90
1800;DHT22;919;48.274;12.292;2024-03-22T06:09:15;4.10;99.90
1800;DHT22;919;48.274;12.292;2024-03-22T06:11:49;4.20;99.90
1800;DHT22;919;48.274;12.292;2024-03-22T06:14:15;4.20;99.90
1800;DHT22;919;48.274;12.292;2024-03-22T06:16:41;4.30;99.90
1800;DHT22;919;48.274;12.292;2024-03-22T06:19:08;4.40;99.90
1800;DHT22;919;48.274;12.292;2024-03-22T06:21:34;4.40;99.90
1800;DHT22;919;48.274;12.292;2024-03-22T06:24:02;4.50;99.90
1800;DHT22;919;48.274;12.292;2024-03-22T06:26:28;4.50;99.90
1800;DHT22;919;48.274;12.292;2024-03-22T06:28:55;4.50;99.90
1800;DHT22;919;48.274;12.292;2024-03-22T06:31:21;4.40;99.90
1800;DHT22;919;48.274;12.292;2024-03-22T06:33:48;4.50;99.90
1800;DHT22;919;48.274;12.292;2024-03-22T06:36:13;4.50;99.90
1800;DHT22;919;48.274;12.292;2024-03-22T06:38:40;4.60;99.90
1800;DHT22;919;48.274;12.292;2024-03-22T06:41:07;4.70;99.90
1800;DHT22;919;48.274;12.292;2024-03-22T06:43:34;4.70;99.90
1800;DHT22;919;48.274;12.292;2024-03-22T06:45:59;4.80;99.90
1800;DHT22;919;48.274;12.292;2024-03-22T06:48:26;5.00;99.90
1800;DHT22;919;48.274;12.292;2024-03-22T06:50:52;5.10;99.90
1800;DHT22;919;48.274;12.292;2024-03-22T06:53:19;5.30;99.90
1800;DHT22;919;48.274;12.292;2024-03-22T06:55:45;5.50;99.90
1800;DHT22;919;48.274;12.292;2024-03-22T06:58:13;5.70;99.90
1800;DHT22;919;48.274;12.292;2024-03-22T07:00:39;5.80;99.90
1800;DHT22;919;48.274;12.292;2024-03-22T07:03:05;6.00;99.90
1800;DHT22;919;48.274;12.292;2024-03-22T07:05:31;6.20;99.90
1800;DHT22;919;48.274;12.292;2024-03-22T07:07:58;6.30;99.90
1800;DHT22;919;48.274;12.292;2024-03-22T07:10:24;6.50;99.90
1800;DHT22;919;48.274;12.292;2024-03-22T07:12:54;6.70;99.90
1800;DHT22;919;48.274;12.292;2024-03-22T07:15:22;6.90;99.90
1800;DHT22;919;48.274;12.292;2024-03-22T07:17:49;7.10;99.90
1800;DHT22;919;48.274;12.292;2024-03-22T07:20:16;7.30;99.90
1800;DHT22;919;48.274;12.292;2024-03-22T07:22:42;7.60;99.90
1800;DHT22;919;48.274;12.292;2024-03-22T07:25:08;7.70;99.90
1800;DHT22;919;48.274;12.292;2024-03-22T07:27:36;7.90;99.90
1800;DHT22;919;48.274;12.292;2024-03-22T07:30:01;8.10;99.90
1800;DHT22;919;48.274;12.292;2024-03-22T07:32:30;8.40;99.90
1800;DHT22;919;48.274;12.292;2024-03-22T07:34:55;8.70;99.90
1800;DHT22;919;48.274;12.292;2024-03-22T07:37:22;9.00;99.90
1800;DHT22;919;48.274;12.292;2024-03-22T07:39:48;9.30;99.90
1800;DHT22;919;48.274;12.292;2024-03-22T07:42:15;9.50;99.90
1800;DHT22;919;48.274;12.292;2024-03-22T07:44:41;9.70;99.90
1800;DHT22;919;48.274;12.292;2024-03-22T07:47:08;9.90;99.90
1800;DHT22;919;48.274;12.292;2024-03-22T07:49:35;10.00;99.90
1800;DHT22;919;48.274;12.292;2024-03-22T07:52:02;10.20;99.90
1800;DHT22;919;48.274;12.292;2024-03-22T07:54:28;10.30;99.90
1800;DHT22;919;48.274;12.292;2024-03-22T07:56:55;10.40;99.90
1800;DHT22;919;48.274;12.292;2024-03-22T07:59:20;10.50;99.90
1800;DHT22;919;48.274;12.292;2024-03-22T08:01:47;10.60;99.90
1800;DHT22;919;48.274;12.292;2024-03-22T08:04:13;10.80;99.90
1800;DHT22;919;48.274;12.292;2024-03-22T08:06:41;10.90;99.90
1800;DHT22;919;48.274;12.292;2024-03-22T08:09:07;11.10;99.90
1800;DHT22;919;48.274;12.292;2024-03-22T08:11:34;11.20;99.90
1800;DHT22;919;48.274;12.292;2024-03-22T08:14:00;11.40;99.90
1800;DHT22;919;48.274;12.292;2024-03-22T08:16:29;11.40;99.90
1800;DHT22;919;48.274;12.292;2024-03-22T08:18:55;11.40;99.90
1800;DHT22;919;48.274;12.292;2024-03-22T08:21:22;11.50;99.90
1800;DHT22;919;48.274;12.292;2024-03-22T08:23:49;11.50;99.90
1800;DHT22;919;48.274;12.292;2024-03-22T08:26:16;11.60;99.90
1800;DHT22;919;48.274;12.292;2024-03-22T08:28:42;11.60;99.90
1800;DHT22;919;48.274;12.292;2024-03-22T08:31:08;11.70;99.90
1800;DHT22;919;48.274;12.292;2024-03-22T08:33:36;11.60;99.90
1800;DHT22;919;48.274;12.292;2024-03-22T08:36:03;11.60;99.90
1800;DHT22;919;48.274;12.292;2024-03-22T08:38:28;11.60;99.90
1800;DHT22;919;48.274;12.292;2024-03-22T08:40:57;11.70;99.90
1800;DHT22;919;48.274;12.292;2024-03-22T08:43:22;11.80;99.90
1800;DHT22;919;48.274;12.292;2024-03-22T08:45:51;12.00;99.90
1800;DHT22;919;48.274;12.292;2024-03-22T08:48:17;12.00;99.90
1800;DHT22;919;48.274;12.292;2024-03-22T08:50:44;12.20;99.90
1800;DHT22;919;48.274;12.292;2024-03-22T08:53:09;12.40;99.90
1800;DHT22;919;48.274;12.292;2024-03-22T08:55:36;12.50;99.90
1800;DHT22;919;48.274;12.292;2024-03-22T08:58:03;12.60;99.90
1800;DHT22;919;48.274;12.292;2024-03-22T09:00:30;12.80;99.90
1800;DHT22;919;48.274;12.292;2024-03-22T09:02:56;13.00;99.90
1800;DHT22;919;48.274;12.292;2024-03-22T09:05:23;13.30;99.90
1800;DHT22;919;48.274;12.292;2024-03-22T09:07:48;13.60;99.90
1800;DHT22;919;48.274;12.292;2024-03-22T09:10:15;13.70;99.90
1800;DHT22;919;48.274;12.292;2024-03-22T09:12:41;13.70;99.90
1800;DHT22;919;48.274;12.292;2024-03-22T09:15:10;14.00;99.90
1800;DHT22;919;48.274;12.292;2024-03-22T09:17:35;14.20;99.90
1800;DHT22;919;48.274;12.292;2024-03-22T09:20:02;14.30;99.90
1800;DHT22;919;48.274;12.292;2024-03-22T09:22:29;14.30;99.90
1800;DHT22;919;48.274;12.292;2024-03-22T09:24:58;14.40;99.90
1800;DHT22;919;48.274;12.292;2024-03-22T09:27:24;14.40;99.90
1800;DHT22;919;48.274;12.292;2024-03-22T09:29:50;14.40;99.90
1800;DHT22;919;48.274;12.292;2024-03-22T09:32:18;14.60;99.90
1800;DHT22;919;48.274;12.292;2024-03-22T09:34:45;14.60;99.90
1800;DHT22;919;48.274;12.292;2024-03-22T09:37:10;14.70;99.90
1800;DHT22;919;48.274;12.292;2024-03-22T09:39:37;14.60;99.90
1800;DHT22;919;48.274;12.292;2024-03-22T09:42:06;14.60;99.90
1800;DHT22;919;48.274;12.292;2024-03-22T09:44:33;14.60;99.90
1800;DHT22;919;48.274;12.292;2024-03-22T09:46:59;14.70;99.90
1800;DHT22;919;48.274;12.292;2024-03-22T09:49:27;14.90;99.90
1800;DHT22;919;48.274;12.292;2024-03-22T09:51:53;14.90;99.90
1800;DHT22;919;48.274;12.292;2024-03-22T09:54:23;15.00;99.90
1800;DHT22;919;48.274;12.292;2024-03-22T09:56:50;14.90;99.90
1800;DHT22;919;48.274;12.292;2024-03-22T09:59:17;14.80;99.90
1800;DHT22;919;48.274;12.292;2024-03-22T10:01:43;14.80;99.90
1800;DHT22;919;48.274;12.292;2024-03-22T10:04:11;14.70;99.90
1800;DHT22;919;48.274;12.292;2024-03-22T10:06:38;14.60;99.90
1800;DHT22;919;48.274;12.292;2024-03-22T10:09:05;14.60;99.90
1800;DHT22;919;48.274;12.292;2024-03-22T10:11:30;14.70;99.90
1800;DHT22;919;48.274;12.292;2024-03-22T10:13:57;15.00;99.90
1800;DHT22;919;48.274;12.292;2024-03-22T10:16:25;15.00;99.90
1800;DHT22;919;48.274;12.292;2024-03-22T10:18:52;15.10;99.90
1800;DHT22;919;48.274;12.292;2024-03-22T10:21:19;15.20;99.90
1800;DHT22;919;48.274;12.292;2024-03-22T10:23:48;15.30;99.90
1800;DHT22;919;48.274;12.292;2024-03-22T10:26:16;15.20;99.90
1800;DHT22;919;48.274;12.292;2024-03-22T10:28:46;15.30;99.90
1800;DHT22;919;48.274;12.292;2024-03-22T10:31:12;15.30;99.90
1800;DHT22;919;48.274;12.292;2024-03-22T10:33:40;15.40;99.90
1800;DHT22;919;48.274;12.292;2024-03-22T10:36:06;15.60;99.90
1800;DHT22;919;48.274;12.292;2024-03-22T10:38:36;15.70;99.90
1800;DHT22;919;48.274;12.292;2024-03-22T10:41:05;15.80;99.90
1800;DHT22;919;48.274;12.292;2024-03-22T10:43:32;15.90;99.90
1800;DHT22;919;48.274;12.292;2024-03-22T10:46:01;15.50;99.90
1800;DHT22;919;48.274;12.292;2024-03-22T10:48:30;15.40;99.90
1800;DHT22;919;48.274;12.292;2024-03-22T10:50:59;15.50;99.90
1800;DHT22;919;48.274;12.292;2024-03-22T10:53:26;15.50;99.90
1800;DHT22;919;48.274;12.292;2024-03-22T10:55:54;15.70;99.90
1800;DHT22;919;48.274;12.292;2024-03-22T10:58:24;15.60;99.90
1800;DHT22;919;48.274;12.292;2024-03-22T11:00:51;15.60;99.90
1800;DHT22;919;48.274;12.292;2024-03-22T11:03:19;15.60;99.90
1800;DHT22;919;48.274;12.292;2024-03-22T11:05:46;15.70;99.90
1800;DHT22;919;48.274;12.292;2024-03-22T11:08:12;15.70;99.90
1800;DHT22;919;48.274;12.292;2024-03-22T11:10:39;15.90;99.90
1800;DHT22;919;48.274;12.292;2024-03-22T11:13:08;15.90;99.90
1800;DHT22;919;48.274;12.292;2024-03-22T11:15:36;15.70;99.90
1800;DHT22;919;48.274;12.292;2024-03-22T11:18:05;15.90;99.90
1800;DHT22;919;48.274;12.292;2024-03-22T11:20:31;15.90;99.90
1800;DHT22;919;48.274;12.292;2024-03-22T11:22:59;16.10;99.90
1800;DHT22;919;48.274;12.292;2024-03-22T11:25:25;16.30;99.90
1800;DHT22;919;48.274;12.292;2024-03-22T11:27:52;16.50;99.90
1800;DHT22;919;48.274;12.292;2024-03-22T11:30:19;16.60;99.90
1800;DHT22;919;48.274;12.292;2024-03-22T11:32:48;16.70;99.90
1800;DHT22;919;48.274;12.292;2024-03-22T11:35:14;16.80;99.90
1800;DHT22;919;48.274;12.292;2024-03-22T11:37:41;16.80;99.90
1800;DHT22;919;48.274;12.292;2024-03-22T11:40:09;16.70;99.90
1800;DHT22;919;48.274;12.292;2024-03-22T11:42:36;16.90;99.90
1800;DHT22;919;48.274;12.292;2024-03-22T11:45:05;16.90;99.90
1800;DHT22;919;48.274;12.292;2024-03-22T11:47:35;16.80;99.90
1800;DHT22;919;48.274;12.292;2024-03-22T11:50:03;17.00;99.90
1800;DHT22;919;48.274;12.292;2024-03-22T11:52:30;17.00;99.90
1800;DHT22;919;48.274;12.292;2024-03-22T11:54:56;17.00;99.90
1800;DHT22;919;48.274;12.292;2024-03-22T11:57:23;16.80;99.90
1800;DHT22;919;48.274;12.292;2024-03-22T11:59:51;16.60;99.90
1800;DHT22;919;48.274;12.292;2024-03-22T12:02:18;16.60;99.90
1800;DHT22;919;48.274;12.292;2024-03-22T12:04:46;16.60;99.90
1800;DHT22;919;48.274;12.292;2024-03-22T12:07:16;16.80;99.90
1800;DHT22;919;48.274;12.292;2024-03-22T12:09:42;17.20;99.90
1800;DHT22;919;48.274;12.292;2024-03-22T12:12:11;17.40;99.90
1800;DHT22;919;48.274;12.292;2024-03-22T12:14:37;17.50;99.90
1800;DHT22;919;48.274;12.292;2024-03-22T12:17:04;17.50;99.90
1800;DHT22;919;48.274;12.292;2024-03-22T12:19:30;17.40;99.90
1800;DHT22;919;48.274;12.292;2024-03-22T12:21:57;17.60;99.90
1800;DHT22;919;48.274;12.292;2024-03-22T12:24:25;17.90;99.90
1800;DHT22;919;48.274;12.292;2024-03-22T12:26:54;18.00;99.90
1800;DHT22;919;48.274;12.292;2024-03-22T12:29:20;17.90;99.90
1800;DHT22;919;48.274;12.292;2024-03-22T12:31:47;17.80;99.90
1800;DHT22;919;48.274;12.292;2024-03-22T12:34:13;17.90;99.90
1800;DHT22;919;48.274;12.292;2024-03-22T12:36:40;17.90;99.90
1800;DHT22;919;48.274;12.292;2024-03-22T12:39:07;17.80;99.90
1800;DHT22;919;48.274;12.292;2024-03-22T12:41:35;17.80;99.90
1800;DHT22;919;48.274;12.292;2024-03-22T12:44:03;17.70;99.90
1800;DHT22;919;48.274;12.292;2024-03-22T12:46:30;17.70;99.90
1800;DHT22;919;48.274;12.292;2024-03-22T12:48:56;17.90;99.90
1800;DHT22;919;48.274;12.292;2024-03-22T12:51:23;17.90;99.90
1800;DHT22;919;48.274;12.292;2024-03-22T12:53:49;17.90;99.90
1800;DHT22;919;48.274;12.292;2024-03-22T12:56:17;17.90;99.90
1800;DHT22;919;48.274;12.292;2024-03-22T12:58:45;17.80;99.90
1800;DHT22;919;48.274;12.292;2024-03-22T13:01:11;17.60;99.90
1800;DHT22;919;48.274;12.292;2024-03-22T13:03:37;17.50;99.90
1800;DHT22;919;48.274;12.292;2024-03-22T13:06:04;17.40;99.90
1800;DHT22;919;48.274;12.292;2024-03-22T13:08:31;17.40;99.90
1800;DHT22;919;48.274;12.292;2024-03-22T13:10:58;17.40;99.90
1800;DHT22;919;48.274;12.292;2024-03-22T13:13:24;17.40;99.90
1800;DHT22;919;48.274;12.292;2024-03-22T13:15:56;17.40;99.90
1800;DHT22;919;48.274;12.292;2024-03-22T13:18:23;17.30;99.90
1800;DHT22;919;48.274;12.292;2024-03-22T13:20:50;17.40;99.90
1800;DHT22;919;48.274;12.292;2024-03-22T13:23:16;17.40;99.90
1800;DHT22;919;48.274;12.292;2024-03-22T13:25:43;17.30;99.90
1800;DHT22;919;48.274;12.292;2024-03-22T13:28:09;17.30;99.90
1800;DHT22;919;48.274;12.292;2024-03-22T13:30:36;17.40;99.90
1800;DHT22;919;48.274;12.292;2024-03-22T13:33:04;17.40;99.90
1800;DHT22;919;48.274;12.292;2024-03-22T13:35:34;17.50;99.90
1800;DHT22;919;48.274;12.292;2024-03-22T13:38:01;17.60;99.90
1800;DHT22;919;48.274;12.292;2024-03-22T13:40:29;17.50;99.90
1800;DHT22;919;48.274;12.292;2024-03-22T13:42:55;17.70;99.90
1800;DHT22;919;48.274;12.292;2024-03-22T13:45:24;17.90;99.90
1800;DHT22;919;48.274;12.292;2024-03-22T13:47:51;17.90;99.90
1800;DHT22;919;48.274;12.292;2024-03-22T13:50:20;17.90;99.90
1800;DHT22;919;48.274;12.292;2024-03-22T13:52:48;17.80;99.90
1800;DHT22;919;48.274;12.292;2024-03-22T13:55:17;17.80;99.90
1800;DHT22;919;48.274;12.292;2024-03-22T13:57:42;17.60;99.90
1800;DHT22;919;48.274;12.292;2024-03-22T14:00:10;17.80;99.90
1800;DHT22;919;48.274;12.292;2024-03-22T14:02:40;17.80;99.90
1800;DHT22;919;48.274;12.292;2024-03-22T14:05:08;17.80;99.90
1800;DHT22;919;48.274;12.292;2024-03-22T14:07:39;17.90;99.90
1800;DHT22;919;48.274;12.292;2024-03-22T14:10:07;18.10;99.90
1800;DHT22;919;48.274;12.292;2024-03-22T14:12:34;18.20;99.90
1800;DHT22;919;48.274;12.292;2024-03-22T14:15:03;18.30;99.90
1800;DHT22;919;48.274;12.292;2024-03-22T14:17:29;18.40;99.90
1800;DHT22;919;48.274;12.292;2024-03-22T14:19:56;18.50;99.90
1800;DHT22;919;48.274;12.292;2024-03-22T14:22:23;18.50;99.90
1800;DHT22;919;48.274;12.292;2024-03-22T14:24:55;18.50;99.90
1800;DHT22;919;48.274;12.292;2024-03-22T14:27:21;18.50;99.90
1800;DHT22;919;48.274;12.292;2024-03-22T14:29:49;18.60;99.90
1800;DHT22;919;48.274;12.292;2024-03-22T14:32:16;18.60;99.90
1800;DHT22;919;48.274;12.292;2024-03-22T14:34:44;18.80;99.90
1800;DHT22;919;48.274;12.292;2024-03-22T14:37:11;18.70;99.90
1800;DHT22;919;48.274;12.292;2024-03-22T14:39:40;18.50;99.90
1800;DHT22;919;48.274;12.292;2024-03-22T14:42:09;18.20;99.90
1800;DHT22;919;48.274;12.292;2024-03-22T14:44:36;18.20;99.90
1800;DHT22;919;48.274;12.292;2024-03-22T14:47:02;18.40;99.90
1800;DHT22;919;48.274;12.292;2024-03-22T14:49:29;18.30;99.90
1800;DHT22;919;48.274;12.292;2024-03-22T14:51:54;18.40;99.90
1800;DHT22;919;48.274;12.292;2024-03-22T14:54:21;18.60;99.90
1800;DHT22;919;48.274;12.292;2024-03-22T14:56:47;18.70;99.90
1800;DHT22;919;48.274;12.292;2024-03-22T14:59:16;18.80;99.90
1800;DHT22;919;48.274;12.292;2024-03-22T15:01:41;18.90;99.90
1800;DHT22;919;48.274;12.292;2024-03-22T15:04:08;18.90;99.90
1800;DHT22;919;48.274;12.292;2024-03-22T15:06:34;19.00;99.90
1800;DHT22;919;48.274;12.292;2024-03-22T15:09:08;19.10;99.90
1800;DHT22;919;48.274;12.292;2024-03-22T15:11:36;19.00;99.90
1800;DHT22;919;48.274;12.292;2024-03-22T15:14:03;18.80;99.90
1800;DHT22;919;48.274;12.292;2024-03-22T15:16:30;18.80;99.90
1800;DHT22;919;48.274;12.292;2024-03-22T15:18:58;18.70;99.90
1800;DHT22;919;48.274;12.292;2024-03-22T15:21:24;18.60;99.90
1800;DHT22;919;48.274;12.292;2024-03-22T15:23:51;18.50;99.90
1800;DHT22;919;48.274;12.292;2024-03-22T15:26:16;18.50;99.90
1800;DHT22;919;48.274;12.292;2024-03-22T15:28:43;18.30;99.90
1800;DHT22;919;48.274;12.292;2024-03-22T15:31:09;18.20;99.90
1800;DHT22;919;48.274;12.292;2024-03-22T15:33:44;18.00;99.90
1800;DHT22;919;48.274;12.292;2024-03-22T15:36:11;17.70;99.90
1800;DHT22;919;48.274;12.292;2024-03-22T15:38:37;17.60;99.90
1800;DHT22;919;48.274;12.292;2024-03-22T15:41:03;17.50;99.90
1800;DHT22;919;48.274;12.292;2024-03-22T15:43:32;17.40;99.90
1800;DHT22;919;48.274;12.292;2024-03-22T15:45:59;17.30;99.90
1800;DHT22;919;48.274;12.292;2024-03-22T15:48:25;17.10;99.90
1800;DHT22;919;48.274;12.292;2024-03-22T15:50:52;17.00;99.90
1800;DHT22;919;48.274;12.292;2024-03-22T15:53:20;16.90;99.90
1800;DHT22;919;48.274;12.292;2024-03-22T15:55:45;16.80;99.90
1800;DHT22;919;48.274;12.292;2024-03-22T15:58:12;16.60;99.90
1800;DHT22;919;48.274;12.292;2024-03-22T16:00:38;16.50;99.90
1800;DHT22;919;48.274;12.292;2024-03-22T16:03:05;16.40;99.90
1800;DHT22;919;48.274;12.292;2024-03-22T16:05:31;16.40;99.90